NCAR-RAP Real-Time Weather Data

Output produced by METARs form (17 September 2019  16:12 UTC)
found at http://weather.rap.ucar.edu/surface/
 
KSUX 171552Z 17016G25KT 10SM CLR 27/21 A2993 RMK AO2 SLP124 T02720206
KSUX 171452Z 17014G21KT 10SM CLR 26/21 A2993 RMK AO2 SLP126 T02610206 58002
KSUX 171352Z 17014G22KT 10SM CLR 24/21 A2994 RMK AO2 PK WND 17027/1324 SLP129 T02390206
KSUX 171252Z 16011KT 9SM CLR 22/21 A2995 RMK AO2 SLP133 T02220206
KSUX 171152Z 15010KT 10SM CLR 23/21 A2993 RMK AO2 SLP128 T02280206 10239 20222 53006
KSUX 171052Z 15010KT 10SM CLR 23/21 A2992 RMK AO2 SLP123 T02330206
KSUX 170952Z AUTO 15010KT 10SM CLR 23/21 A2991 RMK AO2 SLP119 T02280206
KSUX 170852Z AUTO 13009KT 10SM CLR 22/21 A2991 RMK AO2 SLP120 T02220206 58005
KSUX 170752Z AUTO 14008KT 10SM CLR 23/21 A2992 RMK AO2 SLP123 T02330211
KSUX 170652Z AUTO 14008KT 10SM CLR 23/21 A2993 RMK AO2 SLP125 T02280211
KSUX 170552Z AUTO 14009KT 10SM CLR 24/22 A2993 RMK AO2 SLP125 T02390217 10278 20239 403000178 58003
KSUX 170452Z AUTO 15011KT 10SM CLR 24/22 A2993 RMK AO2 SLP127 T02440217
KSUX 170352Z AUTO 15012G20KT 10SM CLR 25/22 A2994 RMK AO2 SLP130 T02500217
KSUX 170252Z AUTO 15009KT 10SM CLR 25/22 A2994 RMK AO2 SLP130 T02500217 53005
KSUX 170052Z 15010KT 10SM CLR 27/22 A2992 RMK AO2 SLP126 T02670217
KSUX 162352Z 15010KT 10SM CLR 28/22 A2992 RMK AO2 SLP124 T02780217 10300 20278 56003
KSUX 162252Z 15008KT 10SM CLR 29/22 A2992 RMK AO2 SLP125 T02890217
KSUX 162152Z 16011G19KT 10SM CLR 29/21 A2992 RMK AO2 SLP125 T02890211
KSUX 162052Z 16011KT 10SM CLR 29/22 A2993 RMK AO2 SLP127 T02940217 56014
KSUX 161952Z 16013G19KT 10SM CLR 30/22 A2994 RMK AO2 SLP131 T03000217